Time;durP1;ratioP1;P1;durP2;ratioP2;P2;SDS_P1;SDS_P2;PMS_P1;PMS_P2;Temp;Humidity;BMP_temperature;BMP_pressure;BME280_temperature;BME280_humidity;BME280_pressure;Samples;Min_cycle;Max_cycle;Signal;HPM_P1;HPM_P2
2023/05/02 00:01:28;;;;;;;;;;;11.10;99.90;;;;;;5070426;28;19928;-74
2023/05/02 00:03:53;;;;;;;;;;;11.10;99.90;;;;;;5073111;28;20066;-75
2023/05/02 00:06:19;;;;;;;;;;;11.10;99.90;;;;;;5041469;28;19929;-74
2023/05/02 00:08:44;;;;;;;;;;;11.10;99.90;;;;;;5035048;28;19978;-74
2023/05/02 00:11:10;;;;;;;;;;;11.10;99.90;;;;;;5068217;28;19932;-74
2023/05/02 00:13:36;;;;;;;;;;;11.10;99.90;;;;;;5073119;28;19958;-74
2023/05/02 00:16:01;;;;;;;;;;;11.10;99.90;;;;;;5072249;28;20005;-74
2023/05/02 00:18:27;;;;;;;;;;;11.10;99.90;;;;;;5071960;28;19936;-74
2023/05/02 00:20:54;;;;;;;;;;;11.10;99.90;;;;;;5038732;28;20307;-74
2023/05/02 00:23:19;;;;;;;;;;;11.10;99.90;;;;;;5091355;28;19963;-74
2023/05/02 00:25:45;;;;;;;;;;;11.10;99.90;;;;;;5088250;28;19935;-74
2023/05/02 00:28:12;;;;;;;;;;;11.00;99.90;;;;;;5069598;28;20418;-74
2023/05/02 00:30:44;;;;;;;;;;;11.00;99.90;;;;;;5054051;28;19947;-74
2023/05/02 00:33:11;;;;;;;;;;;11.10;99.90;;;;;;5079571;28;19924;-74
2023/05/02 00:35:37;;;;;;;;;;;11.00;99.90;;;;;;5075477;28;19928;-75
2023/05/02 00:38:02;;;;;;;;;;;11.00;99.90;;;;;;5072569;28;19990;-75
2023/05/02 00:40:28;;;;;;;;;;;10.90;99.90;;;;;;5062369;28;19928;-74
2023/05/02 00:42:53;;;;;;;;;;;10.80;99.90;;;;;;5051943;28;19924;-74
2023/05/02 00:45:19;;;;;;;;;;;10.70;99.90;;;;;;5046376;28;19929;-75
2023/05/02 00:47:45;;;;;;;;;;;10.70;99.90;;;;;;5045398;28;19925;-74
2023/05/02 00:50:10;;;;;;;;;;;10.60;99.90;;;;;;5074115;28;19929;-76
2023/05/02 00:52:36;;;;;;;;;;;10.60;99.90;;;;;;5100471;28;19994;-76
2023/05/02 00:55:02;;;;;;;;;;;10.50;99.90;;;;;;5093822;28;19925;-76
2023/05/02 00:57:28;;;;;;;;;;;10.40;99.90;;;;;;5094984;28;19936;-76
2023/05/02 00:59:54;;;;;;;;;;;10.40;99.90;;;;;;5075806;28;20014;-77
2023/05/02 01:02:19;;;;;;;;;;;10.40;99.90;;;;;;5078394;28;19929;-76
2023/05/02 01:05:23;;;;;;;;;;;10.40;99.90;;;;;;5105963;28;19928;-77
2023/05/02 01:07:54;;;;;;;;;;;10.30;99.90;;;;;;4999463;28;19933;-77
2023/05/02 01:10:36;;;;;;;;;;;10.30;99.90;;;;;;5005689;28;20442;-77
2023/05/02 01:13:08;;;;;;;;;;;10.30;99.90;;;;;;5049278;28;19935;-76
2023/05/02 01:15:36;;;;;;;;;;;10.20;99.90;;;;;;5075296;28;19925;-77
2023/05/02 01:18:03;;;;;;;;;;;10.30;99.90;;;;;;5073095;28;19947;-76
2023/05/02 01:20:30;;;;;;;;;;;10.20;99.90;;;;;;5062458;28;20019;-76
2023/05/02 01:22:59;;;;;;;;;;;10.20;99.90;;;;;;5062697;28;19925;-76
2023/05/02 01:25:30;;;;;;;;;;;10.20;99.90;;;;;;5078914;28;19925;-76
2023/05/02 01:27:56;;;;;;;;;;;10.20;99.90;;;;;;5078467;28;20411;-76
2023/05/02 01:30:23;;;;;;;;;;;10.30;99.90;;;;;;5095406;28;19931;-76
2023/05/02 01:32:50;;;;;;;;;;;10.20;99.90;;;;;;5061920;28;19924;-75
2023/05/02 01:35:17;;;;;;;;;;;10.10;99.90;;;;;;5079623;28;19955;-75
2023/05/02 01:37:44;;;;;;;;;;;10.10;99.90;;;;;;5094206;28;20506;-75
2023/05/02 01:40:10;;;;;;;;;;;10.10;99.90;;;;;;5075595;28;19934;-76
2023/05/02 01:42:36;;;;;;;;;;;10.00;99.90;;;;;;5073384;28;19940;-75
2023/05/02 01:45:06;;;;;;;;;;;10.00;99.90;;;;;;5091628;28;19924;-76
2023/05/02 01:47:34;;;;;;;;;;;10.00;99.90;;;;;;5073807;28;20224;-75
2023/05/02 01:50:01;;;;;;;;;;;9.90;99.90;;;;;;5087586;28;19936;-75
2023/05/02 01:52:28;;;;;;;;;;;9.90;99.90;;;;;;5058619;28;20291;-75
2023/05/02 01:54:54;;;;;;;;;;;9.90;99.90;;;;;;5072459;28;19932;-75
2023/05/02 01:57:20;;;;;;;;;;;9.90;99.90;;;;;;5061137;28;19934;-75
2023/05/02 01:59:46;;;;;;;;;;;9.80;99.90;;;;;;5071549;28;19924;-75
2023/05/02 02:02:13;;;;;;;;;;;9.80;99.90;;;;;;5086637;28;19946;-75
2023/05/02 02:04:39;;;;;;;;;;;9.80;99.90;;;;;;5088128;28;19951;-75
2023/05/02 02:07:09;;;;;;;;;;;9.80;99.90;;;;;;5080843;28;19928;-75
2023/05/02 02:09:35;;;;;;;;;;;9.80;99.90;;;;;;5085837;28;19956;-75
2023/05/02 02:12:02;;;;;;;;;;;9.80;99.90;;;;;;5091192;28;19940;-74
2023/05/02 02:14:32;;;;;;;;;;;9.80;99.90;;;;;;5065709;28;19935;-75
2023/05/02 02:17:00;;;;;;;;;;;9.80;99.90;;;;;;5084693;28;19928;-75
2023/05/02 02:19:27;;;;;;;;;;;9.80;99.90;;;;;;5090642;28;19924;-75
2023/05/02 02:21:52;;;;;;;;;;;9.80;99.90;;;;;;5087822;28;19979;-75
2023/05/02 02:24:19;;;;;;;;;;;9.80;99.90;;;;;;5085653;28;19932;-75
2023/05/02 02:26:45;;;;;;;;;;;9.80;99.90;;;;;;5085935;28;20216;-75
2023/05/02 02:29:11;;;;;;;;;;;9.80;99.90;;;;;;5062893;28;19925;-75
2023/05/02 02:31:38;;;;;;;;;;;9.80;99.90;;;;;;5087831;28;19925;-75
2023/05/02 02:34:04;;;;;;;;;;;9.80;99.90;;;;;;5088363;28;19987;-75
2023/05/02 02:36:30;;;;;;;;;;;9.80;99.90;;;;;;5059750;28;19924;-75
2023/05/02 02:38:59;;;;;;;;;;;9.70;99.90;;;;;;5077310;28;19946;-75
2023/05/02 02:41:51;;;;;;;;;;;9.80;99.90;;;;;;5088969;28;19928;-75
2023/05/02 02:44:22;;;;;;;;;;;9.80;99.90;;;;;;5065126;28;19954;-75
2023/05/02 02:47:10;;;;;;;;;;;9.80;99.90;;;;;;5058232;28;19924;-75
2023/05/02 02:49:46;;;;;;;;;;;9.80;99.90;;;;;;5071129;28;19929;-75
2023/05/02 02:52:12;;;;;;;;;;;9.70;99.90;;;;;;5059538;28;19995;-76
2023/05/02 02:54:58;;;;;;;;;;;9.70;99.90;;;;;;5071140;28;19959;-76
2023/05/02 02:57:29;;;;;;;;;;;9.60;99.90;;;;;;5059235;28;20379;-76
2023/05/02 02:59:55;;;;;;;;;;;9.50;99.90;;;;;;5087237;28;19964;-75
2023/05/02 03:02:23;;;;;;;;;;;9.40;99.90;;;;;;5073294;28;19924;-77
2023/05/02 03:04:50;;;;;;;;;;;9.30;99.90;;;;;;5090302;28;19940;-76
2023/05/02 03:07:15;;;;;;;;;;;9.20;99.90;;;;;;5076910;28;19929;-77
2023/05/02 03:09:41;;;;;;;;;;;9.10;99.90;;;;;;5062078;28;19936;-76
2023/05/02 03:12:07;;;;;;;;;;;9.10;99.90;;;;;;5072564;28;19924;-77
2023/05/02 03:14:32;;;;;;;;;;;9.00;99.90;;;;;;5037499;28;20455;-76
2023/05/02 03:16:58;;;;;;;;;;;9.00;99.90;;;;;;5085541;28;20433;-76
2023/05/02 03:19:23;;;;;;;;;;;9.00;99.90;;;;;;5058750;28;19925;-76
2023/05/02 03:21:49;;;;;;;;;;;8.90;99.90;;;;;;5070745;28;19932;-76
2023/05/02 03:24:15;;;;;;;;;;;8.90;99.90;;;;;;5088602;28;20301;-76
2023/05/02 03:26:41;;;;;;;;;;;8.80;99.90;;;;;;5069806;28;19928;-77
2023/05/02 03:29:07;;;;;;;;;;;8.80;99.90;;;;;;5070250;28;19925;-76
2023/05/02 03:31:32;;;;;;;;;;;8.80;99.90;;;;;;5058881;28;19933;-77
2023/05/02 03:33:58;;;;;;;;;;;8.80;99.90;;;;;;5070543;28;19939;-75
2023/05/02 03:36:23;;;;;;;;;;;8.70;99.90;;;;;;5069930;28;19924;-76
2023/05/02 03:38:49;;;;;;;;;;;8.70;99.90;;;;;;5057438;28;19954;-75
2023/05/02 03:41:15;;;;;;;;;;;8.70;99.90;;;;;;5089353;28;19936;-75
2023/05/02 03:43:40;;;;;;;;;;;8.60;99.90;;;;;;5103420;28;19924;-75
2023/05/02 03:46:08;;;;;;;;;;;8.60;99.90;;;;;;5091878;28;19924;-76
2023/05/02 03:48:34;;;;;;;;;;;8.60;99.90;;;;;;5088425;28;19935;-77
2023/05/02 03:51:01;;;;;;;;;;;8.50;99.90;;;;;;5102633;28;19955;-77
2023/05/02 03:53:26;;;;;;;;;;;8.50;99.90;;;;;;5085967;28;20402;-76
2023/05/02 03:55:53;;;;;;;;;;;8.50;99.90;;;;;;5089310;28;19924;-82
2023/05/02 03:58:18;;;;;;;;;;;8.50;99.90;;;;;;5039910;28;19928;-82
2023/05/02 04:00:44;;;;;;;;;;;8.40;99.90;;;;;;5069725;28;19995;-82
2023/05/02 04:03:10;;;;;;;;;;;8.40;99.90;;;;;;5067329;28;19925;-82
2023/05/02 04:05:35;;;;;;;;;;;8.30;99.90;;;;;;5073023;28;19924;-81
2023/05/02 04:08:01;;;;;;;;;;;8.30;99.90;;;;;;5070419;28;20378;-81
2023/05/02 04:10:27;;;;;;;;;;;8.30;99.90;;;;;;5037716;28;20445;-82
2023/05/02 04:12:53;;;;;;;;;;;8.30;99.90;;;;;;5043438;28;19956;-80
2023/05/02 04:15:18;;;;;;;;;;;8.20;99.90;;;;;;5070505;28;20015;-81
2023/05/02 04:17:45;;;;;;;;;;;8.20;99.90;;;;;;5051935;28;19951;-82
2023/05/02 04:20:11;;;;;;;;;;;8.20;99.90;;;;;;5090169;28;19925;-82
2023/05/02 04:22:38;;;;;;;;;;;8.20;99.90;;;;;;5076970;28;19960;-83
2023/05/02 04:25:05;;;;;;;;;;;8.10;99.90;;;;;;5075749;28;19924;-82
2023/05/02 04:27:30;;;;;;;;;;;8.10;99.90;;;;;;5059900;28;19925;-83
2023/05/02 04:29:56;;;;;;;;;;;8.00;99.90;;;;;;5057986;28;19947;-82
2023/05/02 04:32:22;;;;;;;;;;;8.00;99.90;;;;;;5089644;28;20295;-83
2023/05/02 04:34:47;;;;;;;;;;;8.00;99.90;;;;;;5060135;28;19925;-82
2023/05/02 04:37:13;;;;;;;;;;;8.00;99.90;;;;;;5075910;28;19931;-83
2023/05/02 04:39:38;;;;;;;;;;;8.00;99.90;;;;;;5072337;28;19925;-83
2023/05/02 04:42:04;;;;;;;;;;;8.00;99.90;;;;;;5072921;28;19989;-82
2023/05/02 04:44:30;;;;;;;;;;;8.00;99.90;;;;;;5067966;28;19924;-83
2023/05/02 04:46:55;;;;;;;;;;;8.00;99.90;;;;;;5059941;28;19971;-83
2023/05/02 04:49:21;;;;;;;;;;;8.00;99.90;;;;;;5069568;28;19931;-80
2023/05/02 04:51:47;;;;;;;;;;;8.00;99.90;;;;;;5071315;28;19933;-78
2023/05/02 04:54:12;;;;;;;;;;;8.00;99.90;;;;;;5084576;28;19924;-80
2023/05/02 04:56:39;;;;;;;;;;;8.00;99.90;;;;;;5074975;28;19987;-78
2023/05/02 04:59:04;;;;;;;;;;;8.00;99.90;;;;;;5068837;28;19939;-77
2023/05/02 05:01:30;;;;;;;;;;;8.00;99.90;;;;;;5066504;28;20401;-77
2023/05/02 05:03:55;;;;;;;;;;;8.00;99.90;;;;;;5039697;28;20656;-79
2023/05/02 05:06:21;;;;;;;;;;;8.00;99.90;;;;;;5036838;28;19929;-78
2023/05/02 05:08:47;;;;;;;;;;;8.00;99.90;;;;;;5075430;28;20432;-78
2023/05/02 05:11:14;;;;;;;;;;;8.00;99.90;;;;;;5049888;28;19925;-78
2023/05/02 05:13:40;;;;;;;;;;;8.00;99.90;;;;;;5084622;28;20322;-78
2023/05/02 05:16:06;;;;;;;;;;;8.00;99.90;;;;;;5076249;28;19925;-78
2023/05/02 05:18:39;;;;;;;;;;;8.00;99.90;;;;;;5071990;28;19975;-78
2023/05/02 05:21:07;;;;;;;;;;;8.10;99.90;;;;;;5078052;28;19924;-79
2023/05/02 05:23:33;;;;;;;;;;;8.00;99.90;;;;;;5091137;28;19929;-78
2023/05/02 05:26:12;;;;;;;;;;;8.10;99.90;;;;;;5060927;28;19928;-78
2023/05/02 05:28:38;;;;;;;;;;;8.10;99.90;;;;;;5113004;28;19932;-78
2023/05/02 05:31:07;;;;;;;;;;;8.20;99.90;;;;;;5096180;28;19995;-78
2023/05/02 05:33:33;;;;;;;;;;;8.20;99.90;;;;;;5094751;28;19942;-78
2023/05/02 05:36:09;;;;;;;;;;;8.30;99.90;;;;;;5075700;28;19932;-78
2023/05/02 05:38:35;;;;;;;;;;;8.30;99.90;;;;;;5096609;28;20245;-78
2023/05/02 05:41:01;;;;;;;;;;;8.30;99.90;;;;;;5091483;28;19975;-78
2023/05/02 05:43:27;;;;;;;;;;;8.40;99.90;;;;;;5090445;28;19924;-78
2023/05/02 05:45:53;;;;;;;;;;;8.40;99.90;;;;;;5076425;28;19990;-78
2023/05/02 05:48:19;;;;;;;;;;;8.50;99.90;;;;;;5090342;28;20540;-79
2023/05/02 05:50:45;;;;;;;;;;;8.50;99.90;;;;;;5072968;28;19935;-78
2023/05/02 05:53:11;;;;;;;;;;;8.60;99.90;;;;;;5071552;28;19924;-79
2023/05/02 05:55:37;;;;;;;;;;;8.70;99.90;;;;;;5072472;28;19928;-78
2023/05/02 05:58:03;;;;;;;;;;;8.70;99.90;;;;;;5087180;28;19944;-78
2023/05/02 06:00:29;;;;;;;;;;;8.80;99.90;;;;;;5092143;28;19932;-79
2023/05/02 06:02:54;;;;;;;;;;;8.80;99.90;;;;;;5055542;28;19925;-79
2023/05/02 06:05:20;;;;;;;;;;;8.80;99.90;;;;;;5090653;28;19982;-79
2023/05/02 06:07:46;;;;;;;;;;;8.80;99.90;;;;;;5068291;28;20040;-79
2023/05/02 06:10:11;;;;;;;;;;;8.90;99.90;;;;;;5088913;28;20080;-78
2023/05/02 06:12:37;;;;;;;;;;;8.90;99.90;;;;;;5093401;28;19974;-78
2023/05/02 06:15:03;;;;;;;;;;;9.10;99.90;;;;;;5087503;28;19928;-79
2023/05/02 06:17:28;;;;;;;;;;;9.20;99.90;;;;;;5042273;28;19929;-79
2023/05/02 06:19:54;;;;;;;;;;;9.30;99.90;;;;;;5072123;28;19969;-79
2023/05/02 06:22:19;;;;;;;;;;;9.40;99.90;;;;;;5064426;28;20399;-79
2023/05/02 06:24:45;;;;;;;;;;;9.50;99.90;;;;;;5036939;28;19962;-79
2023/05/02 06:27:10;;;;;;;;;;;9.50;99.90;;;;;;5053251;28;19924;-79
2023/05/02 06:29:36;;;;;;;;;;;9.60;99.90;;;;;;5087807;28;19983;-79
2023/05/02 06:32:03;;;;;;;;;;;9.60;99.90;;;;;;5088861;28;19939;-79
2023/05/02 06:34:30;;;;;;;;;;;9.60;99.90;;;;;;5041474;28;19960;-80
2023/05/02 06:36:56;;;;;;;;;;;9.70;99.90;;;;;;5083701;28;19925;-78
2023/05/02 06:39:22;;;;;;;;;;;9.90;99.90;;;;;;5071809;28;19935;-78
2023/05/02 06:41:47;;;;;;;;;;;10.60;99.90;;;;;;5085866;28;20011;-80
2023/05/02 06:44:13;;;;;;;;;;;11.30;99.90;;;;;;5068469;28;19928;-78
2023/05/02 06:46:38;;;;;;;;;;;11.60;99.90;;;;;;5089721;28;19939;-78
2023/05/02 06:49:04;;;;;;;;;;;11.50;99.90;;;;;;5069904;28;19964;-78
2023/05/02 06:51:31;;;;;;;;;;;11.20;98.80;;;;;;5062263;28;19928;-78
2023/05/02 06:53:56;;;;;;;;;;;10.90;99.90;;;;;;5043515;28;19951;-78
2023/05/02 06:56:24;;;;;;;;;;;10.70;99.90;;;;;;5089208;28;20368;-78
2023/05/02 06:58:50;;;;;;;;;;;10.50;99.90;;;;;;5056258;28;19929;-79
2023/05/02 07:01:15;;;;;;;;;;;10.30;99.90;;;;;;5089645;28;19955;-80
2023/05/02 07:03:41;;;;;;;;;;;10.30;99.90;;;;;;5088598;28;19932;-80
2023/05/02 07:06:06;;;;;;;;;;;10.30;99.90;;;;;;5093737;28;19982;-81
2023/05/02 07:08:32;;;;;;;;;;;10.40;99.90;;;;;;5092468;28;20381;-80
2023/05/02 07:10:58;;;;;;;;;;;10.50;99.90;;;;;;5087333;28;19925;-77
2023/05/02 07:13:23;;;;;;;;;;;10.40;97.30;;;;;;5060694;28;19964;-77
2023/05/02 07:15:49;;;;;;;;;;;10.30;98.70;;;;;;5067752;28;20015;-77
2023/05/02 07:18:14;;;;;;;;;;;10.20;99.90;;;;;;5080512;28;19946;-77
2023/05/02 07:20:41;;;;;;;;;;;10.20;99.90;;;;;;5076009;28;19928;-77
2023/05/02 07:23:07;;;;;;;;;;;10.20;98.50;;;;;;5076698;28;19924;-78
2023/05/02 07:25:33;;;;;;;;;;;10.20;99.90;;;;;;5075094;28;19951;-78
2023/05/02 07:27:59;;;;;;;;;;;10.20;99.10;;;;;;5058569;28;20391;-78
2023/05/02 07:30:24;;;;;;;;;;;10.30;99.60;;;;;;5053560;28;19937;-78
2023/05/02 07:32:50;;;;;;;;;;;10.40;99.90;;;;;;5074198;28;19925;-78
2023/05/02 07:35:16;;;;;;;;;;;10.40;99.90;;;;;;5059925;28;19931;-78
2023/05/02 07:37:41;;;;;;;;;;;10.40;99.90;;;;;;5091817;28;19925;-78
2023/05/02 07:40:08;;;;;;;;;;;10.40;99.90;;;;;;5092920;28;19965;-77
2023/05/02 07:42:34;;;;;;;;;;;10.40;99.90;;;;;;5076386;28;19947;-77
2023/05/02 07:44:59;;;;;;;;;;;10.30;99.90;;;;;;5088557;28;20011;-77
2023/05/02 07:47:25;;;;;;;;;;;10.20;99.90;;;;;;5077701;28;19929;-77
2023/05/02 07:49:51;;;;;;;;;;;10.20;99.90;;;;;;5059547;28;20014;-77
2023/05/02 07:52:18;;;;;;;;;;;10.20;99.90;;;;;;5075999;28;19931;-78
2023/05/02 07:54:43;;;;;;;;;;;10.20;99.90;;;;;;5091667;28;20391;-78
2023/05/02 07:57:09;;;;;;;;;;;10.30;99.90;;;;;;5088282;28;19928;-78
2023/05/02 07:59:35;;;;;;;;;;;10.30;99.90;;;;;;5075427;28;20188;-78
2023/05/02 08:02:01;;;;;;;;;;;10.30;99.90;;;;;;5072512;28;19925;-78
2023/05/02 08:04:27;;;;;;;;;;;10.20;99.90;;;;;;5104735;28;19929;-78
2023/05/02 08:06:53;;;;;;;;;;;10.10;99.90;;;;;;5086247;28;19924;-78
2023/05/02 08:09:19;;;;;;;;;;;10.10;99.90;;;;;;5043506;28;20323;-78
2023/05/02 08:11:45;;;;;;;;;;;10.00;99.90;;;;;;5091150;28;19924;-78
2023/05/02 08:14:10;;;;;;;;;;;10.00;99.90;;;;;;5076170;28;19925;-78
2023/05/02 08:16:36;;;;;;;;;;;10.00;99.90;;;;;;5091060;28;19932;-78
2023/05/02 08:19:02;;;;;;;;;;;9.90;99.90;;;;;;5092677;28;20480;-78
2023/05/02 08:21:28;;;;;;;;;;;9.90;99.90;;;;;;5072039;28;19991;-78
2023/05/02 08:23:56;;;;;;;;;;;9.80;99.90;;;;;;5072683;28;19925;-77
2023/05/02 08:26:23;;;;;;;;;;;9.70;99.90;;;;;;5088016;28;19934;-76
2023/05/02 08:28:52;;;;;;;;;;;9.70;99.90;;;;;;5040923;28;19928;-77
2023/05/02 08:31:18;;;;;;;;;;;9.60;99.90;;;;;;5093109;28;20442;-78
2023/05/02 08:33:44;;;;;;;;;;;9.60;99.90;;;;;;5093165;28;19932;-77
2023/05/02 08:36:14;;;;;;;;;;;9.60;99.90;;;;;;5093366;28;19925;-77
2023/05/02 08:38:43;;;;;;;;;;;9.60;99.90;;;;;;5073245;28;19924;-77
2023/05/02 08:41:10;;;;;;;;;;;9.60;99.90;;;;;;5075064;28;19928;-77
2023/05/02 08:43:37;;;;;;;;;;;9.60;99.90;;;;;;5093651;28;19951;-77
2023/05/02 08:46:04;;;;;;;;;;;9.70;99.90;;;;;;5059365;28;19925;-77
2023/05/02 08:48:30;;;;;;;;;;;9.70;99.90;;;;;;5065751;28;19933;-77
2023/05/02 08:50:56;;;;;;;;;;;9.80;99.90;;;;;;5059501;28;19954;-77
2023/05/02 08:53:22;;;;;;;;;;;9.80;99.90;;;;;;5092232;28;19924;-77
2023/05/02 08:55:48;;;;;;;;;;;9.90;99.90;;;;;;5093116;28;19925;-76
2023/05/02 08:58:13;;;;;;;;;;;9.90;99.90;;;;;;5092013;28;19924;-77
2023/05/02 09:00:40;;;;;;;;;;;10.00;99.90;;;;;;5079377;28;19928;-77
2023/05/02 09:03:11;;;;;;;;;;;10.00;99.90;;;;;;5094562;28;19924;-77
2023/05/02 09:05:41;;;;;;;;;;;10.10;99.50;;;;;;5096967;28;19988;-77
2023/05/02 09:08:08;;;;;;;;;;;10.20;99.90;;;;;;5078499;28;20207;-77
2023/05/02 09:10:37;;;;;;;;;;;10.30;99.90;;;;;;5077555;28;20450;-78
2023/05/02 09:13:26;;;;;;;;;;;10.40;99.90;;;;;;5097163;28;20339;-77
2023/05/02 09:16:02;;;;;;;;;;;10.50;99.90;;;;;;5062654;28;19925;-76
2023/05/02 09:18:38;;;;;;;;;;;10.50;98.60;;;;;;5096517;28;20300;-77
2023/05/02 09:21:05;;;;;;;;;;;10.50;97.30;;;;;;5071393;28;19928;-76
2023/05/02 09:23:38;;;;;;;;;;;10.40;95.20;;;;;;5078978;28;19925;-76
2023/05/02 09:26:15;;;;;;;;;;;10.50;96.00;;;;;;5097270;28;19924;-77
2023/05/02 09:28:42;;;;;;;;;;;10.50;95.10;;;;;;5095930;28;19956;-77
2023/05/02 09:31:08;;;;;;;;;;;10.70;96.80;;;;;;5061082;28;19928;-77
2023/05/02 09:33:34;;;;;;;;;;;10.80;96.20;;;;;;5062373;28;19980;-76
2023/05/02 09:36:00;;;;;;;;;;;10.90;92.40;;;;;;5096267;28;19924;-76
2023/05/02 09:38:25;;;;;;;;;;;11.00;94.90;;;;;;5063011;28;19931;-76
2023/05/02 09:40:57;;;;;;;;;;;11.10;95.00;;;;;;5077071;28;19936;-76
2023/05/02 09:43:23;;;;;;;;;;;11.20;94.30;;;;;;5096723;28;19980;-76
2023/05/02 09:45:55;;;;;;;;;;;11.40;92.20;;;;;;5078857;28;19936;-76
2023/05/02 09:48:21;;;;;;;;;;;11.50;92.90;;;;;;5062609;28;19928;-76
2023/05/02 09:50:46;;;;;;;;;;;11.60;93.40;;;;;;5078162;28;19954;-76
2023/05/02 09:53:12;;;;;;;;;;;11.60;92.00;;;;;;5095986;28;19985;-76
2023/05/02 09:55:38;;;;;;;;;;;11.60;91.30;;;;;;5062308;28;19960;-76
2023/05/02 09:58:04;;;;;;;;;;;11.50;90.30;;;;;;5078406;28;19925;-76
2023/05/02 10:00:37;;;;;;;;;;;11.50;92.50;;;;;;5078865;28;19962;-76
2023/05/02 10:03:05;;;;;;;;;;;11.40;91.50;;;;;;5075865;28;19982;-76
2023/05/02 10:05:30;;;;;;;;;;;11.30;89.40;;;;;;5095977;28;20015;-77
2023/05/02 10:07:56;;;;;;;;;;;11.20;90.30;;;;;;5060743;28;20387;-76
2023/05/02 10:10:22;;;;;;;;;;;11.20;89.60;;;;;;5095780;28;19928;-76
2023/05/02 10:12:48;;;;;;;;;;;11.20;92.40;;;;;;5075371;28;20380;-76
2023/05/02 10:15:15;;;;;;;;;;;11.30;92.00;;;;;;5076106;28;20431;-78
2023/05/02 10:17:44;;;;;;;;;;;11.50;93.50;;;;;;5090998;28;19925;-78
2023/05/02 10:20:15;;;;;;;;;;;11.70;91.40;;;;;;5060041;28;19924;-76
2023/05/02 10:22:42;;;;;;;;;;;11.90;90.30;;;;;;5091848;28;20383;-76
2023/05/02 10:25:08;;;;;;;;;;;12.00;87.90;;;;;;5061312;28;19925;-76
2023/05/02 10:27:33;;;;;;;;;;;12.20;85.90;;;;;;5078379;28;20395;-75
2023/05/02 10:29:59;;;;;;;;;;;12.30;85.00;;;;;;5081704;28;19947;-76
2023/05/02 10:32:28;;;;;;;;;;;12.40;83.30;;;;;;5080524;28;19924;-76
2023/05/02 10:35:01;;;;;;;;;;;12.50;78.50;;;;;;5090300;28;19925;-77
2023/05/02 10:37:28;;;;;;;;;;;12.70;82.30;;;;;;5091979;28;20318;-76
2023/05/02 10:39:53;;;;;;;;;;;12.60;71.60;;;;;;5092640;28;19924;-77
2023/05/02 10:42:19;;;;;;;;;;;12.80;78.40;;;;;;5082898;28;20007;-76
2023/05/02 10:44:45;;;;;;;;;;;13.00;75.50;;;;;;5070797;28;19925;-79
2023/05/02 10:47:17;;;;;;;;;;;13.10;71.80;;;;;;5046148;28;19924;-80
2023/05/02 10:49:49;;;;;;;;;;;13.10;73.60;;;;;;5091765;28;20019;-79
2023/05/02 10:52:24;;;;;;;;;;;13.10;73.70;;;;;;5092318;28;19932;-81
2023/05/02 10:54:51;;;;;;;;;;;13.00;72.80;;;;;;5088454;28;19925;-79
2023/05/02 10:57:16;;;;;;;;;;;12.90;76.60;;;;;;5086228;28;19983;-80
2023/05/02 10:59:42;;;;;;;;;;;13.00;73.10;;;;;;5078264;28;19925;-79
2023/05/02 11:02:22;;;;;;;;;;;13.10;74.40;;;;;;5074356;28;19932;-79
2023/05/02 11:04:57;;;;;;;;;;;13.20;72.50;;;;;;5056320;28;19960;-79
2023/05/02 11:07:23;;;;;;;;;;;13.20;72.00;;;;;;5059882;28;19947;-78
2023/05/02 11:09:48;;;;;;;;;;;13.00;70.40;;;;;;5043033;28;19929;-77
2023/05/02 11:12:34;;;;;;;;;;;13.00;75.80;;;;;;5089155;28;19928;-77
2023/05/02 11:15:00;;;;;;;;;;;13.00;78.40;;;;;;5045418;28;19929;-80
2023/05/02 11:17:26;;;;;;;;;;;13.10;73.70;;;;;;5075099;28;19931;-80
2023/05/02 11:19:55;;;;;;;;;;;13.40;74.40;;;;;;5092008;28;20384;-80
2023/05/02 11:22:22;;;;;;;;;;;13.70;74.00;;;;;;5091124;28;19971;-81
2023/05/02 11:24:49;;;;;;;;;;;14.00;78.40;;;;;;5092696;28;19924;-80
2023/05/02 11:27:30;;;;;;;;;;;13.90;73.00;;;;;;5075932;28;19980;-80
2023/05/02 11:29:56;;;;;;;;;;;14.00;72.70;;;;;;5092498;28;19947;-80
2023/05/02 11:32:22;;;;;;;;;;;13.80;71.10;;;;;;5091272;28;19924;-79
2023/05/02 11:34:51;;;;;;;;;;;13.80;72.50;;;;;;5091384;28;20109;-80
2023/05/02 11:37:18;;;;;;;;;;;13.80;71.70;;;;;;5075503;28;19925;-80
2023/05/02 11:39:45;;;;;;;;;;;13.70;69.50;;;;;;5091942;28;20450;-79
2023/05/02 11:42:40;;;;;;;;;;;13.60;73.10;;;;;;5092303;28;19931;-78
2023/05/02 11:45:06;;;;;;;;;;;13.50;66.50;;;;;;5043294;28;19929;-77
2023/05/02 11:47:32;;;;;;;;;;;13.40;68.30;;;;;;5092942;28;19925;-78
2023/05/02 11:49:59;;;;;;;;;;;13.30;71.90;;;;;;5058772;28;19930;-77
2023/05/02 11:52:25;;;;;;;;;;;13.10;70.00;;;;;;5092757;28;20046;-77
2023/05/02 11:54:55;;;;;;;;;;;13.10;73.20;;;;;;5087077;28;20447;-77
2023/05/02 11:57:21;;;;;;;;;;;13.10;73.80;;;;;;5090836;28;20015;-78
2023/05/02 11:59:54;;;;;;;;;;;13.30;75.70;;;;;;5089129;28;19950;-78
2023/05/02 12:02:33;;;;;;;;;;;13.20;73.20;;;;;;5092981;28;19924;-78
2023/05/02 12:04:59;;;;;;;;;;;13.30;75.30;;;;;;5101850;28;19979;-78
2023/05/02 12:07:33;;;;;;;;;;;13.30;76.30;;;;;;5074659;28;19935;-79
2023/05/02 12:09:58;;;;;;;;;;;13.30;69.50;;;;;;5090324;28;19928;-79
2023/05/02 12:12:24;;;;;;;;;;;13.30;72.10;;;;;;5092441;28;19924;-79
2023/05/02 12:14:50;;;;;;;;;;;13.30;72.30;;;;;;5092186;28;19928;-79
2023/05/02 12:17:16;;;;;;;;;;;13.30;74.90;;;;;;5093985;28;20338;-79
2023/05/02 12:19:41;;;;;;;;;;;13.20;72.90;;;;;;5092828;28;19924;-79
2023/05/02 12:22:08;;;;;;;;;;;13.20;72.60;;;;;;5093889;28;20327;-78
2023/05/02 12:24:35;;;;;;;;;;;13.30;74.90;;;;;;5059324;28;19925;-78
2023/05/02 12:27:07;;;;;;;;;;;13.40;71.50;;;;;;5075191;28;19956;-79
2023/05/02 12:29:37;;;;;;;;;;;13.30;73.40;;;;;;5093392;28;20078;-79
2023/05/02 12:32:03;;;;;;;;;;;13.20;72.20;;;;;;5095757;28;19925;-79
2023/05/02 12:34:35;;;;;;;;;;;13.20;77.40;;;;;;5098188;28;19928;-82
2023/05/02 12:37:04;;;;;;;;;;;13.00;74.10;;;;;;5084284;28;19924;-81
2023/05/02 12:39:33;;;;;;;;;;;12.90;74.90;;;;;;5097844;28;19924;-81
2023/05/02 12:41:59;;;;;;;;;;;12.80;74.70;;;;;;5080128;28;20011;-80
2023/05/02 12:44:41;;;;;;;;;;;12.60;74.50;;;;;;5097260;28;19935;-81
2023/05/02 12:47:07;;;;;;;;;;;12.70;76.60;;;;;;5095451;28;19929;-81
2023/05/02 12:49:46;;;;;;;;;;;12.70;78.60;;;;;;5094367;28;19936;-82
2023/05/02 12:52:12;;;;;;;;;;;12.70;80.20;;;;;;5096156;28;20015;-83
2023/05/02 12:54:38;;;;;;;;;;;12.80;80.30;;;;;;5094368;28;19959;-81
2023/05/02 12:57:04;;;;;;;;;;;12.70;80.20;;;;;;5078058;28;19970;-81
2023/05/02 12:59:30;;;;;;;;;;;12.70;82.10;;;;;;5061726;28;19925;-81
2023/05/02 13:01:56;;;;;;;;;;;12.70;81.90;;;;;;5094006;28;19934;-81
2023/05/02 13:04:35;;;;;;;;;;;12.70;82.30;;;;;;5079309;28;19990;-81
2023/05/02 13:07:00;;;;;;;;;;;12.50;80.10;;;;;;5093391;28;19946;-80
2023/05/02 13:09:26;;;;;;;;;;;12.40;81.40;;;;;;5078621;28;19984;-80
2023/05/02 13:11:52;;;;;;;;;;;12.40;82.10;;;;;;5094665;28;19924;-80
2023/05/02 13:14:18;;;;;;;;;;;12.30;83.40;;;;;;5078066;28;19925;-80
2023/05/02 13:16:44;;;;;;;;;;;12.30;85.30;;;;;;5091302;28;19984;-79
2023/05/02 13:19:09;;;;;;;;;;;12.50;89.40;;;;;;5076469;28;20122;-80
2023/05/02 13:21:35;;;;;;;;;;;12.50;84.80;;;;;;5078273;28;19928;-81
2023/05/02 13:24:02;;;;;;;;;;;12.40;86.10;;;;;;5077899;28;19924;-79
2023/05/02 13:26:28;;;;;;;;;;;12.30;86.10;;;;;;5078908;28;20362;-79
2023/05/02 13:28:55;;;;;;;;;;;12.20;85.30;;;;;;5062040;28;20302;-78
2023/05/02 13:31:20;;;;;;;;;;;12.20;83.40;;;;;;5061245;28;20480;-79
2023/05/02 13:33:46;;;;;;;;;;;12.20;88.60;;;;;;5077112;28;19929;-78
2023/05/02 13:36:11;;;;;;;;;;;12.20;88.80;;;;;;5094423;28;19925;-82
2023/05/02 13:38:37;;;;;;;;;;;12.30;83.70;;;;;;5092952;28;19932;-82
2023/05/02 13:41:03;;;;;;;;;;;12.40;88.90;;;;;;5078887;28;19924;-82
2023/05/02 13:43:28;;;;;;;;;;;12.50;84.90;;;;;;5093357;28;19928;-82
2023/05/02 13:45:54;;;;;;;;;;;12.60;85.50;;;;;;5090802;28;19982;-78
2023/05/02 13:48:20;;;;;;;;;;;12.60;86.00;;;;;;5086830;28;20411;-83
2023/05/02 13:50:45;;;;;;;;;;;12.40;88.40;;;;;;5043470;28;19925;-83
2023/05/02 13:53:11;;;;;;;;;;;12.20;89.90;;;;;;5071715;28;19939;-84
2023/05/02 13:55:37;;;;;;;;;;;12.00;91.20;;;;;;5076957;28;19925;-83
2023/05/02 13:58:02;;;;;;;;;;;11.90;93.00;;;;;;5092183;28;19925;-82
2023/05/02 14:00:28;;;;;;;;;;;11.90;93.90;;;;;;5045705;28;19928;-81
2023/05/02 14:02:54;;;;;;;;;;;11.80;93.70;;;;;;5092534;28;19950;-81
2023/05/02 14:05:19;;;;;;;;;;;11.80;93.50;;;;;;5094813;28;19938;-81
2023/05/02 14:07:45;;;;;;;;;;;11.80;94.60;;;;;;5075289;28;21086;-81
2023/05/02 14:10:11;;;;;;;;;;;11.80;95.30;;;;;;5076135;28;19929;-82
2023/05/02 14:12:36;;;;;;;;;;;11.90;94.90;;;;;;5075577;28;20389;-81
2023/05/02 14:15:02;;;;;;;;;;;11.90;94.10;;;;;;5093554;28;19943;-82
2023/05/02 14:17:28;;;;;;;;;;;11.90;94.40;;;;;;5094811;28;19940;-81
2023/05/02 14:19:53;;;;;;;;;;;12.00;94.60;;;;;;5066057;28;20024;-81
2023/05/02 14:22:19;;;;;;;;;;;12.10;94.10;;;;;;5076761;28;20011;-81